createdAt,value
2023-02-17T07:55:22.439Z,99690.59
2023-02-17T08:07:16.897Z,99703.94
2023-02-17T08:10:03.051Z,99712.75
2023-02-17T08:12:48.906Z,99711.06
2023-02-17T08:15:16.466Z,99721.09
2023-02-17T08:17:44.445Z,99717.41
2023-02-17T08:20:13.539Z,99734.00
2023-02-17T08:22:40.898Z,99734.22
2023-02-17T08:25:08.761Z,99733.78
2023-02-17T08:27:36.125Z,99749.59
2023-02-17T08:30:04.083Z,99746.50
2023-02-17T08:32:31.583Z,99738.91
2023-02-17T08:34:59.217Z,99751.75
2023-02-17T08:37:26.864Z,99742.94
2023-02-17T08:39:54.189Z,99741.47
2023-02-17T08:42:21.971Z,99746.22
2023-02-17T08:44:49.274Z,99756.03
2023-02-17T08:47:16.653Z,99747.63
2023-02-17T08:49:44.069Z,99757.06
2023-02-17T08:52:11.408Z,99760.66
2023-02-17T08:54:39.355Z,99765.06
2023-02-17T08:57:07.540Z,99774.03
2023-02-17T08:59:35.142Z,99765.63
2023-02-17T09:02:02.652Z,99771.28
2023-02-17T09:04:30.070Z,99774.50
2023-02-17T09:06:58.340Z,99776.00
2023-02-17T09:09:27.034Z,99776.88
2023-02-17T09:11:58.352Z,99782.19
2023-02-17T09:14:26.414Z,99780.97
2023-02-17T09:16:55.485Z,99781.38
2023-02-17T09:19:23.683Z,99778.88
2023-02-17T09:21:51.128Z,99780.81
2023-02-17T09:24:19.007Z,99784.34
2023-02-17T09:26:46.347Z,99784.72
2023-02-17T09:29:13.738Z,99785.81
2023-02-17T09:31:41.385Z,99786.31
2023-02-17T09:34:08.870Z,99795.66
2023-02-17T09:36:42.090Z,99787.44
2023-02-17T09:39:12.408Z,99793.84
2023-02-17T09:41:52.401Z,99798.75
2023-02-17T09:44:40.796Z,99797.59
2023-02-17T09:47:26.731Z,99801.69
2023-02-17T09:50:21.867Z,99793.03
2023-02-17T09:53:42.914Z,99800.69
2023-02-17T09:56:28.227Z,99794.91
2023-02-17T09:59:04.501Z,99788.97
2023-02-17T10:01:36.044Z,99783.72
2023-02-17T10:04:33.590Z,99790.63
2023-02-17T10:07:43.997Z,99797.34
2023-02-17T10:10:41.697Z,99794.25
2023-02-17T10:13:13.161Z,99800.09
2023-02-17T10:15:48.474Z,99802.75
2023-02-17T10:18:47.373Z,99792.63
2023-02-17T10:21:39.307Z,99792.03
2023-02-17T10:24:07.179Z,99791.38
2023-02-17T10:27:42.450Z,99794.06
2023-02-17T10:31:04.938Z,99774.72
2023-02-17T10:33:38.809Z,99771.53
2023-02-17T10:37:01.393Z,99785.63
2023-02-17T10:39:57.100Z,99781.72
2023-02-17T10:42:35.971Z,99790.03
2023-02-17T10:45:37.408Z,99782.81
2023-02-17T10:48:21.313Z,99781.91
2023-02-17T10:50:49.957Z,99784.94
2023-02-17T10:53:25.206Z,99766.28
2023-02-17T10:56:40.096Z,99782.09
2023-02-17T10:59:50.442Z,99772.16
2023-02-17T11:02:41.267Z,99768.47
2023-02-17T11:05:20.469Z,99768.34
2023-02-17T11:07:48.325Z,99759.03
2023-02-17T11:10:40.857Z,99748.31
2023-02-17T11:13:51.330Z,99758.09
2023-02-17T11:17:00.761Z,99750.84
2023-02-17T11:19:35.235Z,99749.34
2023-02-17T11:22:25.903Z,99745.31
2023-02-17T11:25:06.521Z,99744.63
2023-02-17T11:27:33.794Z,99741.63
2023-02-17T11:30:19.228Z,99739.56
2023-02-17T11:32:48.055Z,99744.81
2023-02-17T11:35:37.046Z,99750.59
2023-02-17T11:38:23.295Z,99748.41
2023-02-17T11:41:02.347Z,99742.75
2023-02-17T11:43:33.026Z,99735.97
2023-02-17T11:46:50.123Z,99743.69
2023-02-17T11:50:13.811Z,99739.53
2023-02-17T11:53:46.620Z,99732.13
2023-02-17T11:56:29.538Z,99728.78
2023-02-17T11:59:12.158Z,99733.06
2023-02-17T12:02:36.315Z,99725.31
2023-02-17T12:05:35.554Z,99715.78
2023-02-17T12:08:40.340Z,99722.69
2023-02-17T12:12:10.566Z,99719.09
2023-02-17T12:15:27.382Z,99725.31
2023-02-17T12:18:45.896Z,99711.63
2023-02-17T12:22:07.341Z,99716.81
2023-02-17T12:25:22.319Z,99720.19
2023-02-17T12:28:50.561Z,99721.63
2023-02-17T12:32:11.275Z,99716.88
2023-02-17T12:34:59.415Z,99707.16
2023-02-17T12:37:41.955Z,99713.59
2023-02-17T12:41:05.875Z,99711.75
2023-02-17T12:43:57.005Z,99708.72
2023-02-17T12:46:45.956Z,99717.50
2023-02-17T12:49:42.877Z,99719.81
2023-02-17T12:52:40.497Z,99705.72
2023-02-17T12:55:31.893Z,99705.03
2023-02-17T12:58:15.907Z,99707.13
2023-02-17T13:01:10.664Z,99706.66
2023-02-17T13:03:38.424Z,99722.84
2023-02-17T13:06:41.360Z,99703.69
2023-02-17T13:09:40.512Z,99698.41
2023-02-17T13:12:22.739Z,99711.72
2023-02-17T13:15:26.554Z,99695.75
2023-02-17T13:18:05.031Z,99706.13
2023-02-17T13:20:59.820Z,99709.59
2023-02-17T13:23:43.336Z,99703.88
2023-02-17T13:26:22.525Z,99702.38
2023-02-17T13:28:54.646Z,99694.59
2023-02-17T13:31:26.920Z,99707.34
2023-02-17T13:33:58.719Z,99702.00
2023-02-17T13:36:28.790Z,99696.66
2023-02-17T13:39:26.605Z,99693.88
2023-02-17T13:42:00.307Z,99693.06
2023-02-17T13:44:41.052Z,99691.72
2023-02-17T13:47:27.831Z,99691.22
2023-02-17T13:49:57.532Z,99693.25
2023-02-17T13:52:31.207Z,99685.84
2023-02-17T13:55:06.579Z,99687.69
2023-02-17T13:57:37.644Z,99685.75
2023-02-17T14:00:28.344Z,99688.44
2023-02-17T14:03:22.625Z,99694.88
2023-02-17T14:05:58.434Z,99693.69
2023-02-17T14:08:43.199Z,99691.28
2023-02-17T14:11:20.479Z,99699.41
2023-02-17T14:13:52.137Z,99693.69
2023-02-17T14:16:41.658Z,99693.25
2023-02-17T14:19:19.358Z,99692.91
2023-02-17T14:22:04.309Z,99699.00
2023-02-17T14:24:38.616Z,99691.75
2023-02-17T14:27:14.049Z,99695.75
2023-02-17T14:29:48.521Z,99696.94
2023-02-17T14:32:40.031Z,99694.44
2023-02-17T14:35:23.908Z,99692.63
2023-02-17T14:37:51.408Z,99691.31
2023-02-17T14:40:24.893Z,99689.13
2023-02-17T14:42:52.692Z,99697.13
2023-02-17T14:45:20.460Z,99700.00
2023-02-17T14:47:48.362Z,99696.66
2023-02-17T14:50:19.116Z,99687.81
2023-02-17T14:52:49.565Z,99703.66
2023-02-17T14:55:43.425Z,99693.09
2023-02-17T14:58:23.958Z,99700.53
2023-02-17T15:00:51.654Z,99695.06
2023-02-17T15:03:19.215Z,99700.88
2023-02-17T15:05:47.036Z,99705.81
2023-02-17T15:08:29.571Z,99695.94
2023-02-17T15:10:57.026Z,99706.06
2023-02-17T15:13:24.342Z,99705.28
2023-02-17T15:15:51.722Z,99701.41
2023-02-17T15:18:21.244Z,99710.28
2023-02-17T15:20:51.582Z,99707.59
2023-02-17T15:23:25.549Z,99706.13
2023-02-17T15:25:54.830Z,99704.91
2023-02-17T15:28:22.744Z,99699.44
2023-02-17T15:30:55.788Z,99694.25
2023-02-17T15:33:24.826Z,99702.88
2023-02-17T15:35:54.585Z,99699.97
2023-02-17T15:38:24.345Z,99683.50
2023-02-17T15:40:51.853Z,99695.25
2023-02-17T15:43:22.825Z,99700.94
2023-02-17T15:45:50.202Z,99691.13
2023-02-17T15:48:35.666Z,99694.34
2023-02-17T15:51:03.072Z,99696.31
2023-02-17T15:53:33.129Z,99702.91
2023-02-17T15:56:03.227Z,99695.53
2023-02-17T15:58:31.161Z,99697.03
2023-02-17T16:01:04.092Z,99682.78
2023-02-17T16:03:31.588Z,99677.66
2023-02-17T16:05:58.908Z,99673.16
2023-02-17T16:08:26.236Z,99675.34
2023-02-17T16:10:53.840Z,99672.06
2023-02-17T16:13:24.966Z,99674.66
2023-02-17T16:15:59.792Z,99679.69
2023-02-17T16:18:27.177Z,99686.41
2023-02-17T16:20:54.465Z,99697.34
2023-02-17T16:23:21.803Z,99704.53
2023-02-17T16:25:50.308Z,99698.00
2023-02-17T16:28:22.457Z,99697.19
2023-02-17T16:30:50.819Z,99704.50
2023-02-17T16:33:19.543Z,99699.88
2023-02-17T16:35:49.745Z,99697.88
2023-02-17T16:38:24.335Z,99697.78
2023-02-17T16:40:53.439Z,99705.16
2023-02-17T16:43:30.451Z,99701.84
2023-02-17T16:46:03.217Z,99702.50
2023-02-17T16:48:35.983Z,99705.34
2023-02-17T16:51:03.387Z,99705.25
2023-02-17T16:53:30.851Z,99706.44
2023-02-17T16:55:58.262Z,99708.94
2023-02-17T16:58:27.120Z,99706.06
2023-02-17T17:00:56.204Z,99715.53
2023-02-17T17:03:23.625Z,99708.56
2023-02-17T17:05:52.576Z,99712.75
2023-02-17T17:08:21.904Z,99710.19
2023-02-17T17:10:49.723Z,99699.44
2023-02-17T17:13:17.236Z,99695.78
2023-02-17T17:15:46.460Z,99700.88
2023-02-17T17:18:21.560Z,99697.03
2023-02-17T17:20:49.919Z,99712.69
2023-02-17T17:23:18.809Z,99712.34
2023-02-17T17:25:47.331Z,99708.94
2023-02-17T17:28:20.053Z,99711.25
2023-02-17T17:30:49.333Z,99722.06
2023-02-17T17:33:17.286Z,99714.44
2023-02-17T17:35:44.627Z,99728.50
2023-02-17T17:38:15.839Z,99734.81
2023-02-17T17:40:49.081Z,99733.78
2023-02-17T17:43:23.354Z,99741.59
2023-02-17T17:45:52.452Z,99746.25
2023-02-17T17:48:20.233Z,99747.13
2023-02-17T17:50:49.945Z,99748.81
2023-02-17T17:53:17.359Z,99751.44
2023-02-17T17:55:47.569Z,99749.94
2023-02-17T17:58:16.264Z,99750.91
2023-02-17T18:00:43.569Z,99767.38
2023-02-17T18:03:10.875Z,99770.09
2023-02-17T18:05:38.335Z,99770.84
2023-02-17T18:08:07.536Z,99776.59
2023-02-17T18:10:35.065Z,99781.19
2023-02-17T18:13:02.374Z,99780.78
2023-02-17T18:15:29.848Z,99781.38
2023-02-17T18:17:57.497Z,99780.31
2023-02-17T18:20:24.828Z,99770.31
2023-02-17T18:22:52.109Z,99778.16
2023-02-17T18:25:19.544Z,99772.16
2023-02-17T18:27:48.114Z,99773.66
2023-02-17T18:30:21.375Z,99781.50
2023-02-17T18:32:49.892Z,99775.03
2023-02-17T18:35:18.194Z,99769.97
2023-02-17T18:37:46.331Z,99766.75
2023-02-17T18:40:19.125Z,99770.50
2023-02-17T18:42:48.222Z,99777.13
2023-02-17T18:45:17.619Z,99773.22
2023-02-17T18:47:46.251Z,99768.25
2023-02-17T18:50:15.644Z,99758.00
2023-02-17T18:52:44.268Z,99764.88
2023-02-17T18:55:12.121Z,99761.88
2023-02-17T18:57:39.622Z,99758.19
2023-02-17T19:00:13.600Z,99755.31
2023-02-17T19:02:41.588Z,99752.47
2023-02-17T19:05:11.727Z,99758.56
2023-02-17T19:07:39.053Z,99756.47
2023-02-17T19:10:07.890Z,99747.03
2023-02-17T19:12:35.558Z,99765.34
2023-02-17T19:15:02.992Z,99765.69
2023-02-17T19:17:31.163Z,99763.75
2023-02-17T19:19:58.674Z,99769.97
2023-02-17T19:22:26.034Z,99778.38
2023-02-17T19:24:55.315Z,99781.72
2023-02-17T19:27:22.785Z,99787.38
2023-02-17T19:29:50.096Z,99779.44
2023-02-17T19:32:17.483Z,99785.28
2023-02-17T19:34:44.838Z,99775.97
2023-02-17T19:37:12.405Z,99770.78
2023-02-17T19:39:40.038Z,99775.50
2023-02-17T19:42:08.134Z,99770.38
2023-02-17T19:44:35.546Z,99776.91
2023-02-17T19:47:02.867Z,99764.53
2023-02-17T19:49:30.155Z,99769.84
2023-02-17T19:51:57.473Z,99763.41
2023-02-17T19:54:24.784Z,99771.56
2023-02-17T19:56:52.512Z,99768.66
2023-02-17T19:59:19.979Z,99782.44
2023-02-17T20:01:47.449Z,99790.50
2023-02-17T20:04:14.918Z,99790.81
2023-02-17T20:06:47.946Z,99785.28
2023-02-17T20:09:22.546Z,99786.56
2023-02-17T20:11:53.145Z,99792.44
2023-02-17T20:14:21.819Z,99797.16
2023-02-17T20:16:49.648Z,99797.75
2023-02-17T20:19:17.394Z,99805.81
2023-02-17T20:21:45.826Z,99794.16
2023-02-17T20:24:14.482Z,99808.22
2023-02-17T20:26:46.761Z,99795.78
2023-02-17T20:29:15.242Z,99811.13
2023-02-17T20:31:43.471Z,99806.84
2023-02-17T20:34:39.354Z,99808.47
2023-02-17T20:37:08.838Z,99815.34
2023-02-17T20:39:38.611Z,99818.84
2023-02-17T20:42:06.193Z,99825.06
2023-02-17T20:44:33.851Z,99825.38
